sensor_id;sensor_type;location;lat;lon;timestamp;temperature;humidity
9768;DHT22;4923;52.520;13.494;2023-04-15T00:02:28;8.40;1.00
9768;DHT22;4923;52.520;13.494;2023-04-15T00:05:15;8.30;99.90
9768;DHT22;4923;52.520;13.494;2023-04-15T00:08:03;8.40;1.00
9768;DHT22;4923;52.520;13.494;2023-04-15T00:10:50;8.40;99.90
9768;DHT22;4923;52.520;13.494;2023-04-15T00:13:38;8.30;1.00
9768;DHT22;4923;52.520;13.494;2023-04-15T00:16:25;8.30;1.00
9768;DHT22;4923;52.520;13.494;2023-04-15T00:19:12;8.30;1.00
9768;DHT22;4923;52.520;13.494;2023-04-15T00:21:59;8.30;99.90
9768;DHT22;4923;52.520;13.494;2023-04-15T00:24:46;8.40;1.00
9768;DHT22;4923;52.520;13.494;2023-04-15T00:27:33;8.40;1.00
9768;DHT22;4923;52.520;13.494;2023-04-15T00:30:21;8.40;16.80
9768;DHT22;4923;52.520;13.494;2023-04-15T00:33:08;8.30;45.40
9768;DHT22;4923;52.520;13.494;2023-04-15T00:35:55;8.40;1.00
9768;DHT22;4923;52.520;13.494;2023-04-15T00:38:42;8.30;1.00
9768;DHT22;4923;52.520;13.494;2023-04-15T00:41:29;8.40;1.00
9768;DHT22;4923;52.520;13.494;2023-04-15T00:44:16;8.30;99.90
9768;DHT22;4923;52.520;13.494;2023-04-15T00:47:05;8.40;1.00
9768;DHT22;4923;52.520;13.494;2023-04-15T00:49:52;8.30;63.60
9768;DHT22;4923;52.520;13.494;2023-04-15T00:52:39;8.30;1.00
9768;DHT22;4923;52.520;13.494;2023-04-15T00:55:26;8.30;1.00
9768;DHT22;4923;52.520;13.494;2023-04-15T00:58:13;8.30;1.00
9768;DHT22;4923;52.520;13.494;2023-04-15T01:01:01;8.40;99.90
9768;DHT22;4923;52.520;13.494;2023-04-15T01:03:50;8.30;1.00
9768;DHT22;4923;52.520;13.494;2023-04-15T01:06:37;8.40;1.00
9768;DHT22;4923;52.520;13.494;2023-04-15T01:09:24;8.40;1.00
9768;DHT22;4923;52.520;13.494;2023-04-15T01:12:13;8.40;99.90
9768;DHT22;4923;52.520;13.494;2023-04-15T01:15:00;8.40;1.00
9768;DHT22;4923;52.520;13.494;2023-04-15T01:17:47;8.40;99.90
9768;DHT22;4923;52.520;13.494;2023-04-15T01:20:35;8.40;16.50
9768;DHT22;4923;52.520;13.494;2023-04-15T01:23:22;8.40;1.00
9768;DHT22;4923;52.520;13.494;2023-04-15T01:26:11;8.30;1.00
9768;DHT22;4923;52.520;13.494;2023-04-15T01:28:57;8.40;1.00
9768;DHT22;4923;52.520;13.494;2023-04-15T01:31:49;8.40;1.00
9768;DHT22;4923;52.520;13.494;2023-04-15T01:34:36;8.40;1.00
9768;DHT22;4923;52.520;13.494;2023-04-15T01:37:23;8.40;99.90
9768;DHT22;4923;52.520;13.494;2023-04-15T01:40:11;8.40;63.00
9768;DHT22;4923;52.520;13.494;2023-04-15T01:42:59;8.30;1.00
9768;DHT22;4923;52.520;13.494;2023-04-15T01:45:46;8.40;99.90
9768;DHT22;4923;52.520;13.494;2023-04-15T01:48:33;8.40;99.90
9768;DHT22;4923;52.520;13.494;2023-04-15T01:51:20;8.40;1.00
9768;DHT22;4923;52.520;13.494;2023-04-15T01:54:07;8.40;99.90
9768;DHT22;4923;52.520;13.494;2023-04-15T01:56:54;8.40;1.00
9768;DHT22;4923;52.520;13.494;2023-04-15T01:59:42;8.40;36.70
9768;DHT22;4923;52.520;13.494;2023-04-15T02:02:29;8.40;1.00
9768;DHT22;4923;52.520;13.494;2023-04-15T02:05:16;8.40;1.00
9768;DHT22;4923;52.520;13.494;2023-04-15T02:08:03;8.40;1.00
9768;DHT22;4923;52.520;13.494;2023-04-15T02:10:50;8.40;1.00
9768;DHT22;4923;52.520;13.494;2023-04-15T02:13:37;8.40;1.00
9768;DHT22;4923;52.520;13.494;2023-04-15T02:16:26;8.40;1.00
9768;DHT22;4923;52.520;13.494;2023-04-15T02:19:12;8.50;1.00
9768;DHT22;4923;52.520;13.494;2023-04-15T02:22:00;8.50;1.00
9768;DHT22;4923;52.520;13.494;2023-04-15T02:24:47;8.40;18.20
9768;DHT22;4923;52.520;13.494;2023-04-15T02:27:35;8.40;99.90
9768;DHT22;4923;52.520;13.494;2023-04-15T02:30:22;8.40;1.00
9768;DHT22;4923;52.520;13.494;2023-04-15T02:33:11;8.40;1.00
9768;DHT22;4923;52.520;13.494;2023-04-15T02:35:58;8.50;1.00
9768;DHT22;4923;52.520;13.494;2023-04-15T02:38:45;8.50;1.00
9768;DHT22;4923;52.520;13.494;2023-04-15T02:41:31;8.50;99.90
9768;DHT22;4923;52.520;13.494;2023-04-15T02:44:18;8.50;99.90
9768;DHT22;4923;52.520;13.494;2023-04-15T02:47:06;8.50;1.00
9768;DHT22;4923;52.520;13.494;2023-04-15T02:49:54;8.60;1.00
9768;DHT22;4923;52.520;13.494;2023-04-15T02:52:43;8.60;1.00
9768;DHT22;4923;52.520;13.494;2023-04-15T02:55:30;8.60;99.90
9768;DHT22;4923;52.520;13.494;2023-04-15T02:58:17;8.60;1.00
9768;DHT22;4923;52.520;13.494;2023-04-15T03:01:04;8.60;99.90
9768;DHT22;4923;52.520;13.494;2023-04-15T03:03:52;8.60;1.00
9768;DHT22;4923;52.520;13.494;2023-04-15T03:06:40;8.60;1.00
9768;DHT22;4923;52.520;13.494;2023-04-15T03:09:27;8.60;1.00
9768;DHT22;4923;52.520;13.494;2023-04-15T03:12:14;8.70;1.00
9768;DHT22;4923;52.520;13.494;2023-04-15T03:15:00;8.70;1.00
9768;DHT22;4923;52.520;13.494;2023-04-15T03:17:47;8.80;99.90
9768;DHT22;4923;52.520;13.494;2023-04-15T03:20:35;8.80;99.90
9768;DHT22;4923;52.520;13.494;2023-04-15T03:23:23;8.80;42.00
9768;DHT22;4923;52.520;13.494;2023-04-15T03:26:23;8.80;1.00
9768;DHT22;4923;52.520;13.494;2023-04-15T03:29:10;8.80;1.00
9768;DHT22;4923;52.520;13.494;2023-04-15T03:31:57;8.80;99.90
9768;DHT22;4923;52.520;13.494;2023-04-15T03:34:43;8.80;99.90
9768;DHT22;4923;52.520;13.494;2023-04-15T03:37:30;8.80;99.90
9768;DHT22;4923;52.520;13.494;2023-04-15T03:40:20;8.90;99.90
9768;DHT22;4923;52.520;13.494;2023-04-15T03:43:07;8.90;1.00
9768;DHT22;4923;52.520;13.494;2023-04-15T03:45:54;8.90;99.90
9768;DHT22;4923;52.520;13.494;2023-04-15T03:48:41;9.00;1.00
9768;DHT22;4923;52.520;13.494;2023-04-15T03:51:28;9.00;99.90
9768;DHT22;4923;52.520;13.494;2023-04-15T03:54:16;9.00;99.90
9768;DHT22;4923;52.520;13.494;2023-04-15T03:57:04;9.00;1.00
9768;DHT22;4923;52.520;13.494;2023-04-15T03:59:51;9.00;1.00
9768;DHT22;4923;52.520;13.494;2023-04-15T04:02:38;9.10;99.90
9768;DHT22;4923;52.520;13.494;2023-04-15T04:05:24;9.10;1.00
9768;DHT22;4923;52.520;13.494;2023-04-15T04:08:11;9.10;99.90
9768;DHT22;4923;52.520;13.494;2023-04-15T04:11:01;9.10;1.00
9768;DHT22;4923;52.520;13.494;2023-04-15T04:13:49;9.20;99.90
9768;DHT22;4923;52.520;13.494;2023-04-15T04:16:36;9.10;99.90
9768;DHT22;4923;52.520;13.494;2023-04-15T04:19:22;9.20;99.90
9768;DHT22;4923;52.520;13.494;2023-04-15T04:22:09;9.20;99.90
9768;DHT22;4923;52.520;13.494;2023-04-15T04:24:56;9.20;99.90
9768;DHT22;4923;52.520;13.494;2023-04-15T04:27:45;9.20;99.90
9768;DHT22;4923;52.520;13.494;2023-04-15T04:30:34;9.20;99.90
9768;DHT22;4923;52.520;13.494;2023-04-15T04:33:21;9.20;99.90
9768;DHT22;4923;52.520;13.494;2023-04-15T04:36:08;9.30;99.90
9768;DHT22;4923;52.520;13.494;2023-04-15T04:38:55;9.30;99.90
9768;DHT22;4923;52.520;13.494;2023-04-15T04:41:42;9.30;99.90
9768;DHT22;4923;52.520;13.494;2023-04-15T04:44:28;9.30;99.90
9768;DHT22;4923;52.520;13.494;2023-04-15T04:47:17;9.30;1.00
9768;DHT22;4923;52.520;13.494;2023-04-15T04:50:04;9.30;1.00
9768;DHT22;4923;52.520;13.494;2023-04-15T04:52:51;9.40;67.80
9768;DHT22;4923;52.520;13.494;2023-04-15T04:55:38;9.40;99.90
9768;DHT22;4923;52.520;13.494;2023-04-15T04:58:25;9.40;25.10
9768;DHT22;4923;52.520;13.494;2023-04-15T05:01:12;9.40;5.30
9768;DHT22;4923;52.520;13.494;2023-04-15T05:04:00;9.40;1.00
9768;DHT22;4923;52.520;13.494;2023-04-15T05:06:47;9.50;1.00
9768;DHT22;4923;52.520;13.494;2023-04-15T05:09:33;9.60;1.00
9768;DHT22;4923;52.520;13.494;2023-04-15T05:12:21;9.60;1.00
9768;DHT22;4923;52.520;13.494;2023-04-15T05:15:08;9.60;1.00
9768;DHT22;4923;52.520;13.494;2023-04-15T05:17:55;9.60;1.00
9768;DHT22;4923;52.520;13.494;2023-04-15T05:20:43;9.60;1.00
9768;DHT22;4923;52.520;13.494;2023-04-15T05:23:31;9.70;99.90
9768;DHT22;4923;52.520;13.494;2023-04-15T05:26:17;9.70;1.00
9768;DHT22;4923;52.520;13.494;2023-04-15T05:29:04;9.80;1.00
9768;DHT22;4923;52.520;13.494;2023-04-15T05:31:51;9.80;1.00
9768;DHT22;4923;52.520;13.494;2023-04-15T05:34:38;9.80;99.90
9768;DHT22;4923;52.520;13.494;2023-04-15T05:37:27;9.80;1.00
9768;DHT22;4923;52.520;13.494;2023-04-15T05:40:13;9.80;1.00
9768;DHT22;4923;52.520;13.494;2023-04-15T05:43:00;9.90;1.00
9768;DHT22;4923;52.520;13.494;2023-04-15T05:45:47;9.90;99.90
9768;DHT22;4923;52.520;13.494;2023-04-15T05:48:34;9.90;99.90
9768;DHT22;4923;52.520;13.494;2023-04-15T05:51:21;10.00;1.00
9768;DHT22;4923;52.520;13.494;2023-04-15T05:54:09;10.00;99.90
9768;DHT22;4923;52.520;13.494;2023-04-15T05:56:56;10.00;99.90
9768;DHT22;4923;52.520;13.494;2023-04-15T05:59:43;10.00;99.90
9768;DHT22;4923;52.520;13.494;2023-04-15T06:02:30;10.10;99.90
9768;DHT22;4923;52.520;13.494;2023-04-15T06:05:17;10.10;1.00
9768;DHT22;4923;52.520;13.494;2023-04-15T06:08:05;10.30;1.00
9768;DHT22;4923;52.520;13.494;2023-04-15T06:10:54;10.20;1.00
9768;DHT22;4923;52.520;13.494;2023-04-15T06:13:41;10.30;1.00
9768;DHT22;4923;52.520;13.494;2023-04-15T06:16:27;10.30;1.00
9768;DHT22;4923;52.520;13.494;2023-04-15T06:19:14;10.30;1.00
9768;DHT22;4923;52.520;13.494;2023-04-15T06:22:01;10.40;1.00
9768;DHT22;4923;52.520;13.494;2023-04-15T06:24:48;10.50;1.00
9768;DHT22;4923;52.520;13.494;2023-04-15T06:27:37;10.50;1.00
9768;DHT22;4923;52.520;13.494;2023-04-15T06:30:24;10.60;1.00
9768;DHT22;4923;52.520;13.494;2023-04-15T06:33:11;10.60;99.90
9768;DHT22;4923;52.520;13.494;2023-04-15T06:35:58;10.70;99.90
9768;DHT22;4923;52.520;13.494;2023-04-15T06:38:44;10.70;1.00
9768;DHT22;4923;52.520;13.494;2023-04-15T06:41:31;10.80;1.00
9768;DHT22;4923;52.520;13.494;2023-04-15T06:44:20;10.90;99.90
9768;DHT22;4923;52.520;13.494;2023-04-15T06:47:07;10.80;99.90
9768;DHT22;4923;52.520;13.494;2023-04-15T06:49:54;10.90;99.90
9768;DHT22;4923;52.520;13.494;2023-04-15T06:52:41;11.00;99.90
9768;DHT22;4923;52.520;13.494;2023-04-15T06:55:28;11.10;1.00
9768;DHT22;4923;52.520;13.494;2023-04-15T06:58:16;11.10;1.00
9768;DHT22;4923;52.520;13.494;2023-04-15T07:01:04;11.10;1.00
9768;DHT22;4923;52.520;13.494;2023-04-15T07:03:51;11.10;1.00
9768;DHT22;4923;52.520;13.494;2023-04-15T07:06:38;11.30;99.90
9768;DHT22;4923;52.520;13.494;2023-04-15T07:09:25;11.30;1.00
9768;DHT22;4923;52.520;13.494;2023-04-15T07:12:11;11.20;99.90
9768;DHT22;4923;52.520;13.494;2023-04-15T07:14:58;11.20;99.90
9768;DHT22;4923;52.520;13.494;2023-04-15T07:17:46;11.30;1.00
9768;DHT22;4923;52.520;13.494;2023-04-15T07:20:33;11.30;99.90
9768;DHT22;4923;52.520;13.494;2023-04-15T07:23:20;11.30;99.90
9768;DHT22;4923;52.520;13.494;2023-04-15T07:26:07;11.20;99.90
9768;DHT22;4923;52.520;13.494;2023-04-15T07:28:55;11.20;1.00
9768;DHT22;4923;52.520;13.494;2023-04-15T07:31:42;11.20;1.00
9768;DHT22;4923;52.520;13.494;2023-04-15T07:34:30;11.00;99.90
9768;DHT22;4923;52.520;13.494;2023-04-15T07:37:17;10.90;1.00
9768;DHT22;4923;52.520;13.494;2023-04-15T07:40:05;10.90;1.00
9768;DHT22;4923;52.520;13.494;2023-04-15T07:42:55;10.90;1.00
9768;DHT22;4923;52.520;13.494;2023-04-15T07:45:42;10.90;99.90
9768;DHT22;4923;52.520;13.494;2023-04-15T07:48:28;10.80;9.20
9768;DHT22;4923;52.520;13.494;2023-04-15T07:51:17;10.80;99.90
9768;DHT22;4923;52.520;13.494;2023-04-15T07:54:05;10.80;1.00
9768;DHT22;4923;52.520;13.494;2023-04-15T07:56:52;10.70;1.00
9768;DHT22;4923;52.520;13.494;2023-04-15T07:59:39;10.60;99.90
9768;DHT22;4923;52.520;13.494;2023-04-15T08:02:26;10.60;63.10
9768;DHT22;4923;52.520;13.494;2023-04-15T08:05:13;10.60;1.00
9768;DHT22;4923;52.520;13.494;2023-04-15T08:08:01;10.60;1.00
9768;DHT22;4923;52.520;13.494;2023-04-15T08:10:48;10.70;27.70
9768;DHT22;4923;52.520;13.494;2023-04-15T08:13:36;10.70;72.90
9768;DHT22;4923;52.520;13.494;2023-04-15T08:16:23;10.70;99.90
9768;DHT22;4923;52.520;13.494;2023-04-15T08:19:12;10.60;99.90
9768;DHT22;4923;52.520;13.494;2023-04-15T08:21:59;10.50;99.90
9768;DHT22;4923;52.520;13.494;2023-04-15T08:24:47;10.50;99.90
9768;DHT22;4923;52.520;13.494;2023-04-15T08:27:34;10.60;1.00
9768;DHT22;4923;52.520;13.494;2023-04-15T08:30:21;10.60;78.80
9768;DHT22;4923;52.520;13.494;2023-04-15T08:33:08;10.70;99.90
9768;DHT22;4923;52.520;13.494;2023-04-15T08:35:55;10.80;1.00
9768;DHT22;4923;52.520;13.494;2023-04-15T08:38:43;10.90;1.00
9768;DHT22;4923;52.520;13.494;2023-04-15T08:41:36;11.00;1.00
9768;DHT22;4923;52.520;13.494;2023-04-15T08:44:25;10.90;1.00
9768;DHT22;4923;52.520;13.494;2023-04-15T08:47:19;10.90;1.00
9768;DHT22;4923;52.520;13.494;2023-04-15T08:50:08;10.90;99.90
9768;DHT22;4923;52.520;13.494;2023-04-15T08:52:58;10.90;1.00
9768;DHT22;4923;52.520;13.494;2023-04-15T08:55:45;10.70;10.20
9768;DHT22;4923;52.520;13.494;2023-04-15T08:58:37;10.70;72.90
9768;DHT22;4923;52.520;13.494;2023-04-15T09:01:24;10.70;99.90
9768;DHT22;4923;52.520;13.494;2023-04-15T09:04:11;10.80;99.90
9768;DHT22;4923;52.520;13.494;2023-04-15T09:06:58;10.90;99.90
9768;DHT22;4923;52.520;13.494;2023-04-15T09:09:45;10.90;99.90
9768;DHT22;4923;52.520;13.494;2023-04-15T09:12:33;11.00;99.90
9768;DHT22;4923;52.520;13.494;2023-04-15T09:15:24;11.10;1.00
9768;DHT22;4923;52.520;13.494;2023-04-15T09:18:13;11.10;99.90
9768;DHT22;4923;52.520;13.494;2023-04-15T09:21:14;11.20;99.90
9768;DHT22;4923;52.520;13.494;2023-04-15T09:24:01;11.20;99.90
9768;DHT22;4923;52.520;13.494;2023-04-15T09:26:51;11.30;1.00
9768;DHT22;4923;52.520;13.494;2023-04-15T09:29:40;11.20;1.00
9768;DHT22;4923;52.520;13.494;2023-04-15T09:32:28;11.30;1.00
9768;DHT22;4923;52.520;13.494;2023-04-15T09:35:16;11.20;99.90
9768;DHT22;4923;52.520;13.494;2023-04-15T09:38:04;11.30;99.90
9768;DHT22;4923;52.520;13.494;2023-04-15T09:40:52;11.20;99.90
9768;DHT22;4923;52.520;13.494;2023-04-15T09:43:39;11.20;1.00
9768;DHT22;4923;52.520;13.494;2023-04-15T09:46:42;11.30;15.50
9768;DHT22;4923;52.520;13.494;2023-04-15T09:49:31;11.20;99.90
9768;DHT22;4923;52.520;13.494;2023-04-15T09:52:18;11.20;1.00
9768;DHT22;4923;52.520;13.494;2023-04-15T09:55:06;11.20;1.00
9768;DHT22;4923;52.520;13.494;2023-04-15T09:57:53;11.10;1.00
9768;DHT22;4923;52.520;13.494;2023-04-15T10:00:40;11.00;1.00
9768;DHT22;4923;52.520;13.494;2023-04-15T10:03:28;11.00;1.00
9768;DHT22;4923;52.520;13.494;2023-04-15T10:06:17;10.90;1.00
9768;DHT22;4923;52.520;13.494;2023-04-15T10:09:05;11.00;1.00
9768;DHT22;4923;52.520;13.494;2023-04-15T10:11:52;11.00;99.90
9768;DHT22;4923;52.520;13.494;2023-04-15T10:14:40;11.00;1.00
9768;DHT22;4923;52.520;13.494;2023-04-15T10:17:29;11.00;1.00
9768;DHT22;4923;52.520;13.494;2023-04-15T10:20:18;11.10;99.90
9768;DHT22;4923;52.520;13.494;2023-04-15T10:23:08;11.20;99.90
9768;DHT22;4923;52.520;13.494;2023-04-15T10:25:56;11.20;1.00
9768;DHT22;4923;52.520;13.494;2023-04-15T10:28:45;11.20;1.00
9768;DHT22;4923;52.520;13.494;2023-04-15T10:31:34;11.20;1.00
9768;DHT22;4923;52.520;13.494;2023-04-15T10:34:23;11.20;99.90
9768;DHT22;4923;52.520;13.494;2023-04-15T10:37:10;11.30;1.00
9768;DHT22;4923;52.520;13.494;2023-04-15T10:39:58;11.30;99.90
9768;DHT22;4923;52.520;13.494;2023-04-15T10:42:45;11.40;1.00
9768;DHT22;4923;52.520;13.494;2023-04-15T10:45:33;11.30;99.90
9768;DHT22;4923;52.520;13.494;2023-04-15T10:48:21;11.40;99.90
9768;DHT22;4923;52.520;13.494;2023-04-15T10:51:08;11.40;1.00
9768;DHT22;4923;52.520;13.494;2023-04-15T10:53:59;11.50;1.00
9768;DHT22;4923;52.520;13.494;2023-04-15T10:56:50;11.50;99.90
9768;DHT22;4923;52.520;13.494;2023-04-15T10:59:58;11.50;99.90
9768;DHT22;4923;52.520;13.494;2023-04-15T11:02:46;11.50;99.90
9768;DHT22;4923;52.520;13.494;2023-04-15T11:05:50;11.60;1.00
9768;DHT22;4923;52.520;13.494;2023-04-15T11:08:54;11.50;99.90
9768;DHT22;4923;52.520;13.494;2023-04-15T11:12:05;11.40;99.90
9768;DHT22;4923;52.520;13.494;2023-04-15T11:14:53;11.30;1.00
9768;DHT22;4923;52.520;13.494;2023-04-15T11:17:39;11.40;1.00
9768;DHT22;4923;52.520;13.494;2023-04-15T11:20:26;11.40;1.00
9768;DHT22;4923;52.520;13.494;2023-04-15T11:23:14;11.40;1.00
9768;DHT22;4923;52.520;13.494;2023-04-15T11:26:03;11.30;1.00
9768;DHT22;4923;52.520;13.494;2023-04-15T11:28:55;11.30;1.00
9768;DHT22;4923;52.520;13.494;2023-04-15T11:31:46;11.40;99.90
9768;DHT22;4923;52.520;13.494;2023-04-15T11:34:34;11.30;1.00
9768;DHT22;4923;52.520;13.494;2023-04-15T11:37:27;11.30;99.90
9768;DHT22;4923;52.520;13.494;2023-04-15T11:40:15;11.30;1.00
9768;DHT22;4923;52.520;13.494;2023-04-15T11:43:06;11.30;1.00
9768;DHT22;4923;52.520;13.494;2023-04-15T11:45:56;11.30;1.00
9768;DHT22;4923;52.520;13.494;2023-04-15T11:48:45;11.30;1.00
9768;DHT22;4923;52.520;13.494;2023-04-15T11:51:33;11.30;99.90
9768;DHT22;4923;52.520;13.494;2023-04-15T11:54:23;11.30;1.00
9768;DHT22;4923;52.520;13.494;2023-04-15T11:57:10;11.30;1.00
9768;DHT22;4923;52.520;13.494;2023-04-15T11:59:57;11.40;99.90
9768;DHT22;4923;52.520;13.494;2023-04-15T12:02:46;11.30;1.00
9768;DHT22;4923;52.520;13.494;2023-04-15T12:05:33;11.30;1.00
9768;DHT22;4923;52.520;13.494;2023-04-15T12:08:20;11.30;1.00
9768;DHT22;4923;52.520;13.494;2023-04-15T12:11:07;11.30;99.90
9768;DHT22;4923;52.520;13.494;2023-04-15T12:13:55;11.40;99.90
9768;DHT22;4923;52.520;13.494;2023-04-15T12:16:44;11.40;99.90
9768;DHT22;4923;52.520;13.494;2023-04-15T12:19:35;11.50;1.00
9768;DHT22;4923;52.520;13.494;2023-04-15T12:22:22;11.50;1.00
9768;DHT22;4923;52.520;13.494;2023-04-15T12:25:10;11.50;1.00
9768;DHT22;4923;52.520;13.494;2023-04-15T12:27:56;11.60;1.00
9768;DHT22;4923;52.520;13.494;2023-04-15T12:30:48;11.70;1.00
9768;DHT22;4923;52.520;13.494;2023-04-15T12:33:36;11.80;99.90
9768;DHT22;4923;52.520;13.494;2023-04-15T12:36:24;11.90;99.90
9768;DHT22;4923;52.520;13.494;2023-04-15T12:39:11;12.00;99.90
9768;DHT22;4923;52.520;13.494;2023-04-15T12:41:58;12.00;99.90
9768;DHT22;4923;52.520;13.494;2023-04-15T12:44:46;12.00;47.50
9768;DHT22;4923;52.520;13.494;2023-04-15T12:47:33;12.10;1.00
9768;DHT22;4923;52.520;13.494;2023-04-15T12:50:20;12.10;99.90
9768;DHT22;4923;52.520;13.494;2023-04-15T12:53:08;12.10;99.90
9768;DHT22;4923;52.520;13.494;2023-04-15T12:55:54;12.00;1.00
9768;DHT22;4923;52.520;13.494;2023-04-15T12:58:41;12.00;1.00
9768;DHT22;4923;52.520;13.494;2023-04-15T13:01:28;11.90;1.00
9768;DHT22;4923;52.520;13.494;2023-04-15T13:04:15;12.00;1.00
9768;DHT22;4923;52.520;13.494;2023-04-15T13:07:03;12.00;1.00
9768;DHT22;4923;52.520;13.494;2023-04-15T13:09:51;11.90;99.90
9768;DHT22;4923;52.520;13.494;2023-04-15T13:12:38;11.60;19.30
9768;DHT22;4923;52.520;13.494;2023-04-15T13:15:26;11.70;99.90
9768;DHT22;4923;52.520;13.494;2023-04-15T13:18:13;11.50;1.00
9768;DHT22;4923;52.520;13.494;2023-04-15T13:21:00;11.60;1.00
9768;DHT22;4923;52.520;13.494;2023-04-15T13:23:47;11.70;1.00
9768;DHT22;4923;52.520;13.494;2023-04-15T13:26:36;11.80;1.00
9768;DHT22;4923;52.520;13.494;2023-04-15T13:29:23;11.90;1.00
9768;DHT22;4923;52.520;13.494;2023-04-15T13:32:10;11.80;99.90
9768;DHT22;4923;52.520;13.494;2023-04-15T13:34:57;11.80;1.00
9768;DHT22;4923;52.520;13.494;2023-04-15T13:37:44;11.90;1.00
9768;DHT22;4923;52.520;13.494;2023-04-15T13:40:31;11.90;99.90
9768;DHT22;4923;52.520;13.494;2023-04-15T13:43:19;11.80;99.90
9768;DHT22;4923;52.520;13.494;2023-04-15T13:46:06;11.70;99.90
9768;DHT22;4923;52.520;13.494;2023-04-15T13:48:53;11.80;1.00
9768;DHT22;4923;52.520;13.494;2023-04-15T13:51:40;11.80;1.00
9768;DHT22;4923;52.520;13.494;2023-04-15T13:54:27;11.70;99.90
9768;DHT22;4923;52.520;13.494;2023-04-15T13:57:14;11.70;1.00
9768;DHT22;4923;52.520;13.494;2023-04-15T14:00:03;11.80;1.00
9768;DHT22;4923;52.520;13.494;2023-04-15T14:02:50;11.60;1.00
9768;DHT22;4923;52.520;13.494;2023-04-15T14:05:37;11.50;1.00
9768;DHT22;4923;52.520;13.494;2023-04-15T14:08:24;11.50;1.00
9768;DHT22;4923;52.520;13.494;2023-04-15T14:11:11;11.50;99.90
9768;DHT22;4923;52.520;13.494;2023-04-15T14:13:58;11.50;1.00
9768;DHT22;4923;52.520;13.494;2023-04-15T14:16:46;11.70;1.00
9768;DHT22;4923;52.520;13.494;2023-04-15T14:19:34;11.70;1.00
9768;DHT22;4923;52.520;13.494;2023-04-15T14:22:21;11.70;1.00
9768;DHT22;4923;52.520;13.494;2023-04-15T14:25:08;11.70;1.00
9768;DHT22;4923;52.520;13.494;2023-04-15T14:27:55;11.60;1.00
9768;DHT22;4923;52.520;13.494;2023-04-15T14:30:42;11.50;1.00
9768;DHT22;4923;52.520;13.494;2023-04-15T14:33:31;11.60;1.00
9768;DHT22;4923;52.520;13.494;2023-04-15T14:36:17;11.60;1.00
9768;DHT22;4923;52.520;13.494;2023-04-15T14:39:05;11.40;1.00
9768;DHT22;4923;52.520;13.494;2023-04-15T14:41:52;11.50;99.90
9768;DHT22;4923;52.520;13.494;2023-04-15T14:44:38;11.60;99.90
9768;DHT22;4923;52.520;13.494;2023-04-15T14:47:25;11.50;83.10
9768;DHT22;4923;52.520;13.494;2023-04-15T14:50:13;11.50;99.90
9768;DHT22;4923;52.520;13.494;2023-04-15T14:53:00;11.40;1.00
9768;DHT22;4923;52.520;13.494;2023-04-15T14:55:47;11.50;1.00
9768;DHT22;4923;52.520;13.494;2023-04-15T14:58:34;11.50;99.90
9768;DHT22;4923;52.520;13.494;2023-04-15T15:01:21;11.50;99.90
9768;DHT22;4923;52.520;13.494;2023-04-15T15:04:09;11.40;1.00
9768;DHT22;4923;52.520;13.494;2023-04-15T15:06:57;11.40;99.90
9768;DHT22;4923;52.520;13.494;2023-04-15T15:09:44;11.30;1.00
9768;DHT22;4923;52.520;13.494;2023-04-15T15:12:31;11.20;1.00
9768;DHT22;4923;52.520;13.494;2023-04-15T15:15:18;11.20;1.00
9768;DHT22;4923;52.520;13.494;2023-04-15T15:18:05;11.30;1.00
9768;DHT22;4923;52.520;13.494;2023-04-15T15:20:52;11.30;1.00
9768;DHT22;4923;52.520;13.494;2023-04-15T15:23:40;11.30;1.00
9768;DHT22;4923;52.520;13.494;2023-04-15T15:26:27;11.20;1.00
9768;DHT22;4923;52.520;13.494;2023-04-15T15:29:14;11.20;1.00
9768;DHT22;4923;52.520;13.494;2023-04-15T15:32:01;11.20;1.00
9768;DHT22;4923;52.520;13.494;2023-04-15T15:34:48;11.20;1.00
9768;DHT22;4923;52.520;13.494;2023-04-15T15:37:35;11.20;1.00
9768;DHT22;4923;52.520;13.494;2023-04-15T15:40:23;11.20;1.00
9768;DHT22;4923;52.520;13.494;2023-04-15T15:43:10;11.20;1.00
9768;DHT22;4923;52.520;13.494;2023-04-15T15:45:57;11.20;1.00
9768;DHT22;4923;52.520;13.494;2023-04-15T15:48:44;11.20;1.00
9768;DHT22;4923;52.520;13.494;2023-04-15T15:51:31;11.20;1.00
9768;DHT22;4923;52.520;13.494;2023-04-15T15:54:18;11.20;1.00
9768;DHT22;4923;52.520;13.494;2023-04-15T15:57:06;11.20;1.00
9768;DHT22;4923;52.520;13.494;2023-04-15T15:59:53;11.30;1.00
9768;DHT22;4923;52.520;13.494;2023-04-15T16:02:42;11.30;1.00
9768;DHT22;4923;52.520;13.494;2023-04-15T16:05:29;11.20;1.00
9768;DHT22;4923;52.520;13.494;2023-04-15T16:08:16;11.30;1.00
9768;DHT22;4923;52.520;13.494;2023-04-15T16:11:02;11.40;1.00
9768;DHT22;4923;52.520;13.494;2023-04-15T16:13:51;11.30;1.00
9768;DHT22;4923;52.520;13.494;2023-04-15T16:16:38;11.30;1.00
9768;DHT22;4923;52.520;13.494;2023-04-15T16:19:25;11.30;1.00
9768;DHT22;4923;52.520;13.494;2023-04-15T16:22:12;11.20;1.00
9768;DHT22;4923;52.520;13.494;2023-04-15T16:24:59;11.30;1.00
9768;DHT22;4923;52.520;13.494;2023-04-15T16:27:45;11.30;1.00
9768;DHT22;4923;52.520;13.494;2023-04-15T16:30:35;11.30;99.90
9768;DHT22;4923;52.520;13.494;2023-04-15T16:33:22;11.20;1.00
9768;DHT22;4923;52.520;13.494;2023-04-15T16:36:09;11.10;99.90
9768;DHT22;4923;52.520;13.494;2023-04-15T16:38:56;11.10;1.00
9768;DHT22;4923;52.520;13.494;2023-04-15T16:41:43;11.10;91.50
9768;DHT22;4923;52.520;13.494;2023-04-15T16:44:30;11.20;1.00
9768;DHT22;4923;52.520;13.494;2023-04-15T16:47:18;11.20;1.00
9768;DHT22;4923;52.520;13.494;2023-04-15T16:50:06;11.20;1.00
9768;DHT22;4923;52.520;13.494;2023-04-15T16:52:53;11.20;1.00
9768;DHT22;4923;52.520;13.494;2023-04-15T16:55:40;11.10;1.00
9768;DHT22;4923;52.520;13.494;2023-04-15T16:58:27;11.10;1.00
9768;DHT22;4923;52.520;13.494;2023-04-15T17:01:14;11.20;1.00
9768;DHT22;4923;52.520;13.494;2023-04-15T17:04:02;11.20;1.00
9768;DHT22;4923;52.520;13.494;2023-04-15T17:06:50;11.20;56.30
9768;DHT22;4923;52.520;13.494;2023-04-15T17:09:37;11.10;1.00
9768;DHT22;4923;52.520;13.494;2023-04-15T17:12:25;11.20;1.00
9768;DHT22;4923;52.520;13.494;2023-04-15T17:15:12;11.10;1.00
9768;DHT22;4923;52.520;13.494;2023-04-15T17:17:58;11.10;1.00
9768;DHT22;4923;52.520;13.494;2023-04-15T17:20:47;11.00;1.00
9768;DHT22;4923;52.520;13.494;2023-04-15T17:23:35;11.10;1.00
9768;DHT22;4923;52.520;13.494;2023-04-15T17:26:21;11.10;1.00
9768;DHT22;4923;52.520;13.494;2023-04-15T17:29:08;11.10;1.00
9768;DHT22;4923;52.520;13.494;2023-04-15T17:31:55;11.10;1.00
9768;DHT22;4923;52.520;13.494;2023-04-15T17:34:42;11.00;1.00
9768;DHT22;4923;52.520;13.494;2023-04-15T17:37:31;11.00;1.00
9768;DHT22;4923;52.520;13.494;2023-04-15T17:40:17;11.00;8.00
9768;DHT22;4923;52.520;13.494;2023-04-15T17:43:04;11.00;1.00
9768;DHT22;4923;52.520;13.494;2023-04-15T17:45:51;11.00;1.00
9768;DHT22;4923;52.520;13.494;2023-04-15T17:48:38;10.90;1.00
9768;DHT22;4923;52.520;13.494;2023-04-15T17:51:25;10.90;1.00
9768;DHT22;4923;52.520;13.494;2023-04-15T17:54:14;10.80;1.00
9768;DHT22;4923;52.520;13.494;2023-04-15T17:57:00;10.80;1.00
9768;DHT22;4923;52.520;13.494;2023-04-15T17:59:47;10.80;1.00
9768;DHT22;4923;52.520;13.494;2023-04-15T18:02:34;10.80;1.00
9768;DHT22;4923;52.520;13.494;2023-04-15T18:05:21;10.90;1.00
9768;DHT22;4923;52.520;13.494;2023-04-15T18:08:08;10.80;1.00
9768;DHT22;4923;52.520;13.494;2023-04-15T18:10:56;10.70;99.90
9768;DHT22;4923;52.520;13.494;2023-04-15T18:13:43;10.80;99.90